Time;durP1;ratioP1;P1;durP2;ratioP2;P2;SDS_P1;SDS_P2;PMS_P1;PMS_P2;Temp;Humidity;BMP_temperature;BMP_pressure;BME280_temperature;BME280_humidity;BME280_pressure;Samples;Min_cycle;Max_cycle;Signal;HPM_P1;HPM_P2
2022/05/11 00:01:52;;;;;;;11.38;6.35;;;;;;;8.81;52.93;100663.73;3490490;79;20937;-75
2022/05/11 00:06:44;;;;;;;10.10;6.28;;;;;;;8.74;53.38;100670.48;3475336;79;20976;-74
2022/05/11 00:11:36;;;;;;;8.78;6.17;;;;;;;8.74;53.05;100660.98;3544067;79;20969;-74
2022/05/11 00:16:30;;;;;;;9.43;6.37;;;;;;;8.71;53.01;100649.27;3495638;79;21190;-75
2022/05/11 00:21:22;;;;;;;10.00;6.25;;;;;;;8.61;53.69;100646.00;3506851;79;21004;-75
2022/05/11 00:26:14;;;;;;;11.50;6.10;;;;;;;8.61;53.69;100646.00;3500291;79;21834;-75
2022/05/11 00:31:05;;;;;;;8.40;5.30;;;;;;;8.62;53.38;100646.47;3494911;79;21417;-75
2022/05/11 00:35:57;;;;;;;6.90;5.78;;;;;;;8.63;53.33;100649.93;3566682;79;21092;-74
2022/05/11 00:40:54;;;;;;;9.85;5.87;;;;;;;8.63;53.28;100615.80;3543935;78;21200;-74
2022/05/11 00:45:48;;;;;;;12.03;6.22;;;;;;;8.63;53.28;100615.80;3543508;79;20974;-74
2022/05/11 00:50:40;;;;;;;11.55;5.53;;;;;;;8.73;53.38;100625.55;3565391;79;20910;-74
2022/05/11 00:55:34;;;;;;;8.10;6.15;;;;;;;8.72;53.73;100619.91;3519035;78;20993;-74
2022/05/11 01:00:27;;;;;;;9.00;5.47;;;;;;;8.67;53.36;100590.41;3617432;78;21002;-74
2022/05/11 01:05:18;;;;;;;9.35;5.78;;;;;;;8.72;53.82;100591.81;3575728;78;21041;-74
2022/05/11 01:10:10;;;;;;;8.25;5.75;;;;;;;8.76;53.91;100591.03;3567152;79;20962;-75
2022/05/11 01:15:05;;;;;;;7.45;5.75;;;;;;;8.73;54.26;100591.86;3533826;78;44630;-75
2022/05/11 01:19:56;;;;;;;6.65;5.42;;;;;;;8.75;54.00;100597.08;3547534;79;20942;-75
2022/05/11 01:24:50;;;;;;;9.38;5.47;;;;;;;8.81;54.36;100601.52;3513101;79;20970;-75
2022/05/11 01:29:41;;;;;;;9.28;6.22;;;;;;;8.81;54.36;100601.52;3537808;79;21468;-75
2022/05/11 01:34:33;;;;;;;7.00;5.20;;;;;;;8.82;54.20;100592.88;3585782;79;20975;-75
2022/05/11 01:39:25;;;;;;;8.10;4.80;;;;;;;8.82;53.87;100588.99;3503661;79;21513;-75
2022/05/11 01:44:19;;;;;;;9.05;4.95;;;;;;;8.84;54.30;100592.52;3532508;79;20974;-75
2022/05/11 01:49:10;;;;;;;7.10;4.67;;;;;;;8.88;54.81;100590.44;3600910;79;20946;-75
2022/05/11 01:54:01;;;;;;;5.67;4.47;;;;;;;8.95;55.42;100584.55;3553334;78;20918;-75
2022/05/11 01:58:54;;;;;;;8.48;5.25;;;;;;;8.95;55.42;100584.55;3564459;79;20946;-75
2022/05/11 02:03:46;;;;;;;6.75;4.20;;;;;;;8.97;54.83;100578.53;3588801;80;20910;-75
2022/05/11 02:08:38;;;;;;;6.97;3.95;;;;;;;9.05;54.82;100556.67;3613189;78;20966;-75
2022/05/11 02:13:31;;;;;;;8.03;4.28;;;;;;;9.05;54.82;100556.67;3600803;78;20956;-75
2022/05/11 02:18:22;;;;;;;7.17;4.10;;;;;;;9.07;55.23;100547.20;3572960;78;21099;-75
2022/05/11 02:23:16;;;;;;;7.75;5.17;;;;;;;9.12;55.00;100549.47;3618941;78;21364;-75
2022/05/11 02:28:08;;;;;;;6.42;4.87;;;;;;;9.15;54.91;100535.67;3556658;78;20959;-75
2022/05/11 02:32:59;;;;;;;6.00;4.58;;;;;;;9.14;54.91;100529.63;3617283;78;20947;-75
2022/05/11 02:37:55;;;;;;;8.05;4.85;;;;;;;9.15;55.10;100525.30;3596573;78;20939;-75
2022/05/11 02:42:46;;;;;;;5.85;4.10;;;;;;;9.13;55.34;100507.11;3605192;78;21910;-75
2022/05/11 02:47:38;;;;;;;5.10;4.47;;;;;;;9.14;55.60;100506.28;3604466;78;20958;-75
2022/05/11 02:52:30;;;;;;;5.12;3.90;;;;;;;9.13;55.63;100502.36;3569672;78;20953;-75
2022/05/11 02:57:21;;;;;;;6.58;4.87;;;;;;;9.16;55.76;100501.99;3519247;79;20974;-75
2022/05/11 03:02:12;;;;;;;4.83;3.77;;;;;;;9.16;55.76;100496.80;3519298;78;21789;-74
2022/05/11 03:07:03;;;;;;;5.00;3.62;;;;;;;9.18;55.98;100508.94;3548329;78;21292;-75
2022/05/11 03:11:54;;;;;;;7.20;3.87;;;;;;;9.19;55.86;100506.78;3551063;78;20961;-75
2022/05/11 03:16:46;;;;;;;6.25;3.80;;;;;;;9.21;56.39;100520.25;3584266;78;21436;-75
2022/05/11 03:21:37;;;;;;;5.45;3.05;;;;;;;9.32;56.15;100507.48;3508736;78;21013;-75
2022/05/11 03:26:28;;;;;;;5.92;4.03;;;;;;;9.32;56.15;100507.48;3546515;79;20974;-75
2022/05/11 03:31:19;;;;;;;5.87;3.65;;;;;;;9.37;56.29;100499.33;3557535;78;21054;-75
2022/05/11 03:36:11;;;;;;;4.45;3.52;;;;;;;9.45;56.37;100498.20;3574657;79;22112;-75
2022/05/11 03:41:02;;;;;;;6.20;3.30;;;;;;;9.52;56.25;100482.75;3494182;79;20954;-75
2022/05/11 03:45:53;;;;;;;6.33;3.77;;;;;;;9.62;56.36;100480.31;3518267;79;21779;-75
2022/05/11 03:50:44;;;;;;;6.12;3.77;;;;;;;9.69;56.54;100479.56;3570826;79;21538;-75
2022/05/11 03:55:35;;;;;;;9.70;4.33;;;;;;;9.81;56.35;100462.03;3519856;78;21094;-75
2022/05/11 04:00:26;;;;;;;7.92;4.50;;;;;;;9.87;56.65;100465.61;3548391;79;20975;-75
2022/05/11 04:05:18;;;;;;;9.00;4.40;;;;;;;9.90;56.85;100466.92;3537404;79;20977;-75
2022/05/11 04:10:12;;;;;;;36.08;7.15;;;;;;;10.06;56.77;100462.84;3573517;78;20961;-75
2022/05/11 04:15:06;;;;;;;15.55;5.58;;;;;;;10.16;56.87;100452.18;3555050;79;20969;-75
2022/05/11 04:19:57;;;;;;;11.22;4.40;;;;;;;10.16;56.87;100452.18;3501597;78;22297;-75
2022/05/11 04:24:48;;;;;;;8.00;4.60;;;;;;;10.56;57.18;100459.24;3534095;79;20942;-75
2022/05/11 04:29:40;;;;;;;11.73;4.55;;;;;;;10.56;57.18;100459.24;3559418;79;20922;-75
2022/05/11 04:34:31;;;;;;;14.33;4.20;;;;;;;11.02;56.54;100449.39;3527732;79;21681;-75
2022/05/11 04:39:22;;;;;;;7.97;4.15;;;;;;;11.02;56.54;100449.39;3480973;79;21186;-75
2022/05/11 04:44:13;;;;;;;6.05;4.03;;;;;;;11.33;55.74;100447.09;3490680;80;21056;-76
2022/05/11 04:49:19;;;;;;;10.82;4.90;;;;;;;11.63;55.02;100445.63;3436304;80;21524;-76
2022/05/11 04:54:11;;;;;;;5.92;4.12;;;;;;;11.82;54.59;100451.44;3443653;80;21541;-76
2022/05/11 04:59:02;;;;;;;11.40;5.17;;;;;;;12.00;54.16;100450.73;3501560;80;21445;-76
2022/05/11 05:03:53;;;;;;;10.15;4.80;;;;;;;12.17;53.84;100449.52;3488742;79;21013;-76
2022/05/11 05:08:44;;;;;;;5.95;4.17;;;;;;;12.37;53.74;100448.77;3523748;80;21500;-76
2022/05/11 05:13:35;;;;;;;8.33;4.40;;;;;;;12.53;53.03;100440.15;3512629;80;21061;-76
2022/05/11 05:18:28;;;;;;;9.28;4.58;;;;;;;12.77;52.37;100432.01;3473368;79;20882;-76
2022/05/11 05:23:19;;;;;;;7.47;3.98;;;;;;;13.09;52.05;100429.89;3449615;79;20914;-76
2022/05/11 05:33:20;;;;;;;9.13;3.80;;;;;;;13.38;51.00;100434.31;3582765;78;21235;-76
2022/05/11 05:38:11;;;;;;;8.98;4.28;;;;;;;13.49;50.82;100433.91;3573670;78;20919;-76
2022/05/11 05:43:05;;;;;;;8.35;4.10;;;;;;;13.61;50.46;100428.70;3533863;78;20950;-76
2022/05/11 05:47:56;;;;;;;5.97;4.20;;;;;;;13.73;50.47;100428.70;3573261;78;21044;-75
2022/05/11 05:52:49;;;;;;;6.40;4.20;;;;;;;13.90;50.29;100421.27;3611280;78;20974;-76
2022/05/11 05:57:40;;;;;;;11.73;5.55;;;;;;;14.08;50.20;100426.45;3570616;78;21004;-78
2022/05/11 06:02:31;;;;;;;10.70;4.50;;;;;;;14.32;49.81;100418.11;3515652;79;21628;-79
2022/05/11 06:07:22;;;;;;;10.28;5.05;;;;;;;15.20;48.57;100413.36;3620634;78;20930;-79
2022/05/11 06:12:15;;;;;;;9.10;5.10;;;;;;;15.99;47.58;100414.90;3538842;79;20969;-81
2022/05/11 06:17:17;;;;;;;8.08;4.22;;;;;;;16.25;47.48;100415.05;3512327;79;20950;-81
2022/05/11 06:22:09;;;;;;;9.50;4.80;;;;;;;17.28;46.31;100418.12;3544458;79;20990;-80
2022/05/11 06:27:00;;;;;;;6.90;4.50;;;;;;;17.68;45.63;100420.09;3561727;79;20970;-79
2022/05/11 06:31:51;;;;;;;12.33;4.70;;;;;;;17.77;45.40;100418.61;3543824;79;21020;-80
2022/05/11 06:36:42;;;;;;;8.10;4.37;;;;;;;18.50;44.67;100412.89;3527743;79;21492;-80
2022/05/11 06:41:34;;;;;;;9.05;4.80;;;;;;;18.77;44.23;100410.57;3554928;78;20919;-80
2022/05/11 06:46:25;;;;;;;9.50;4.72;;;;;;;18.88;44.14;100413.00;3556333;78;20958;-80
2022/05/11 06:51:18;;;;;;;9.08;4.80;;;;;;;18.77;43.53;100406.63;3585408;78;20931;-80
2022/05/11 07:01:18;;;;;;;9.93;5.10;;;;;;;19.47;42.67;100398.00;3543365;79;21449;-81
2022/05/11 07:06:09;;;;;;;7.97;5.47;;;;;;;20.68;41.75;100393.89;3535736;80;20993;-81
2022/05/11 07:16:10;;;;;;;6.17;4.65;;;;;;;22.12;39.78;100395.36;3583158;80;21017;-83
2022/05/11 07:21:03;;;;;;;7.12;5.25;;;;;;;24.08;37.71;100384.52;3561025;78;20982;-83
2022/05/11 07:25:54;;;;;;;9.20;5.20;;;;;;;27.17;35.01;100374.70;3527224;79;20935;-83
2022/05/11 07:30:47;;;;;;;8.95;4.83;;;;;;;29.84;31.46;100363.69;3501482;80;20922;-87
2022/05/11 07:35:38;;;;;;;8.25;4.25;;;;;;;30.64;29.94;100367.92;3532320;78;20931;-80
2022/05/11 07:40:29;;;;;;;9.70;4.25;;;;;;;32.40;29.06;100355.94;3591830;78;20939;-80
2022/05/11 07:45:23;;;;;;;7.30;4.53;;;;;;;33.97;27.04;100345.56;3595623;78;20946;-80
2022/05/11 07:50:15;;;;;;;6.85;4.80;;;;;;;35.08;23.72;100339.73;3588619;78;20973;-79
2022/05/11 07:55:07;;;;;;;7.35;4.58;;;;;;;35.27;25.20;100336.17;3525991;79;21252;-80
2022/05/11 07:59:59;;;;;;;6.47;4.47;;;;;;;34.14;25.50;100331.42;3572298;79;21155;-78
2022/05/11 08:04:50;;;;;;;9.58;5.25;;;;;;;32.10;26.20;100329.17;3513375;79;20998;-78
2022/05/11 08:09:44;;;;;;;6.83;4.53;;;;;;;30.56;27.38;100327.38;3542910;79;21455;-76
2022/05/11 08:14:35;;;;;;;10.65;4.70;;;;;;;30.19;26.79;100319.27;3520460;79;20970;-84
2022/05/11 08:19:28;;;;;;;7.83;3.98;;;;;;;30.02;27.31;100310.61;3527389;79;20919;-80
2022/05/11 08:24:19;;;;;;;10.45;4.55;;;;;;;28.78;28.29;100311.88;3613259;77;21507;-75
2022/05/11 08:29:10;;;;;;;10.53;4.30;;;;;;;28.01;29.15;100315.42;3646798;78;20958;-80
2022/05/11 08:34:02;;;;;;;11.73;4.90;;;;;;;28.03;29.34;100315.34;3469931;80;20938;-76
2022/05/11 08:38:56;;;;;;;6.22;3.85;;;;;;;29.18;28.97;100299.88;3545139;80;22381;-75
2022/05/11 08:43:48;;;;;;;4.80;4.20;;;;;;;29.16;28.82;100303.15;3536350;80;20935;-77
2022/05/11 08:48:48;;;;;;;6.92;3.62;;;;;;;28.11;29.76;100301.00;3541112;80;21271;-78
2022/05/11 08:53:41;;;;;;;9.58;4.37;;;;;;;27.21;31.04;100308.18;3571956;80;21065;-82
2022/05/11 08:58:39;;;;;;;8.43;4.15;;;;;;;26.73;31.41;100310.08;3522141;80;21527;-81
2022/05/11 09:03:35;;;;;;;6.28;4.15;;;;;;;26.51;31.48;100305.92;3529510;78;20953;-80
2022/05/11 09:08:27;;;;;;;;;;;;;;;26.46;31.88;100307.98;3534307;80;20947;-80
2022/05/11 09:13:20;;;;;;;5.15;4.53;;;;;;;26.52;31.99;100310.30;3481262;80;21311;-80
2022/05/11 09:18:11;;;;;;;6.50;4.40;;;;;;;26.59;32.76;100315.66;3540403;80;20982;-79
2022/05/11 09:23:04;;;;;;;6.75;4.22;;;;;;;26.38;32.76;100306.20;3523688;80;20962;-80
2022/05/11 09:28:26;;;;;;;11.25;4.80;;;;;;;26.93;32.52;100307.11;3503018;80;20926;-80
2022/05/11 09:33:24;;;;;;;8.45;4.20;;;;;;;26.87;32.55;100301.30;3571134;79;20958;-80
2022/05/11 09:38:40;;;;;;;5.78;4.37;;;;;;;27.47;32.14;100300.45;3595244;78;21146;-80
2022/05/11 09:43:43;;;;;;;6.47;4.43;;;;;;;28.04;31.49;100300.52;3490442;80;20957;-81
2022/05/11 09:48:37;;;;;;;7.08;4.22;;;;;;;29.17;30.73;100291.49;3511964;80;20911;-80
2022/05/11 09:53:35;;;;;;;7.40;5.00;;;;;;;29.71;31.02;100292.27;3551951;79;21061;-81
2022/05/11 09:58:33;;;;;;;7.80;5.17;;;;;;;31.59;29.62;100286.61;3497794;80;20968;-84
2022/05/11 10:03:28;;;;;;;8.60;4.45;;;;;;;33.83;26.68;100279.87;3507823;79;21210;-83
2022/05/11 10:08:32;;;;;;;5.33;4.75;;;;;;;34.30;26.11;100277.49;3591667;78;21007;-81
2022/05/11 10:13:31;;;;;;;6.03;4.58;;;;;;;34.88;25.99;100274.91;3514656;79;20942;-81
2022/05/11 10:23:30;;;;;;;5.58;5.00;;;;;;;34.98;24.65;100260.54;3496654;78;20997;-83
2022/05/11 10:28:43;;;;;;;5.62;4.75;;;;;;;35.00;25.02;100262.59;3543533;78;21456;-81
2022/05/11 10:33:49;;;;;;;5.37;4.47;;;;;;;33.63;25.20;100255.48;3591954;78;21045;-81
2022/05/11 10:39:04;;;;;;;6.55;5.80;;;;;;;32.50;25.72;100257.36;3559570;79;20907;-80
2022/05/11 10:44:03;;;;;;;5.33;4.78;;;;;;;31.38;27.90;100260.40;3546204;79;21437;-81
2022/05/11 10:49:15;;;;;;;6.12;4.47;;;;;;;31.00;28.14;100248.11;3558980;78;20967;-80
2022/05/11 10:54:28;;;;;;;6.85;4.42;;;;;;;30.71;28.48;100234.16;3572955;78;21463;-81
2022/05/11 10:59:37;;;;;;;9.35;4.75;;;;;;;30.55;28.60;100242.52;3600565;78;20961;-82
2022/05/11 11:04:57;;;;;;;7.75;4.35;;;;;;;30.83;28.19;100229.70;3606993;78;20946;-84
2022/05/11 11:10:21;;;;;;;7.10;4.22;;;;;;;31.47;27.38;100231.47;3581906;78;20958;-82
2022/05/11 11:15:16;;;;;;;5.45;4.50;;;;;;;31.73;27.96;100223.23;3583345;79;20946;-82
2022/05/11 11:20:10;;;;;;;6.45;4.12;;;;;;;31.93;27.76;100223.81;3590414;78;21786;-83
2022/05/11 11:25:16;;;;;;;10.70;4.30;;;;;;;32.82;27.81;100213.45;3566904;78;20950;-82
2022/05/11 11:30:19;;;;;;;5.47;4.45;;;;;;;32.58;27.16;100201.55;3553124;79;20962;-83
2022/05/11 11:35:27;;;;;;;5.85;4.35;;;;;;;31.85;27.04;100204.75;3606897;78;20954;-83
2022/05/11 11:40:22;;;;;;;6.70;4.80;;;;;;;31.26;27.83;100196.89;3576175;78;21001;-81
2022/05/11 11:45:40;;;;;;;6.70;4.10;;;;;;;31.14;28.13;100190.17;3531420;79;21018;-82
2022/05/11 11:50:53;;;;;;;5.62;4.25;;;;;;;31.03;28.07;100191.97;3577445;78;20930;-80
2022/05/11 11:55:44;;;;;;;5.05;4.08;;;;;;;30.39;27.98;100181.97;3604928;79;20931;-81
2022/05/11 12:01:06;;;;;;;5.35;4.20;;;;;;;29.92;28.85;100183.59;3550565;79;21128;-82
2022/05/11 12:16:25;;;;;;;8.23;4.05;;;;;;;29.26;29.33;100167.72;3581467;79;21374;-79
2022/05/11 12:21:28;;;;;;;5.35;4.10;;;;;;;28.96;29.31;100157.78;3576641;79;20993;-76
2022/05/11 12:26:33;;;;;;;5.08;3.95;;;;;;;29.00;29.69;100147.23;3547634;78;20934;-77
2022/05/11 12:31:31;;;;;;;4.70;4.10;;;;;;;29.21;29.84;100160.48;3543440;78;20962;-76
2022/05/11 12:36:34;;;;;;;4.62;4.03;;;;;;;28.87;29.81;100154.77;3529473;80;22237;-77
2022/05/11 12:41:27;;;;;;;6.83;3.75;;;;;;;28.57;30.79;100147.49;3519578;80;20989;-79
2022/05/11 12:46:19;;;;;;;6.62;4.17;;;;;;;28.32;30.31;100137.06;3505909;80;20895;-80
2022/05/11 12:51:16;;;;;;;8.38;3.90;;;;;;;27.81;30.65;100142.14;3494381;80;21061;-82
2022/05/11 12:56:24;;;;;;;4.58;3.60;;;;;;;27.30;30.99;100150.20;3458372;80;21024;-83
2022/05/11 13:01:21;;;;;;;5.37;4.70;;;;;;;26.91;31.41;100143.64;3528716;79;21251;-85
2022/05/11 13:06:34;;;;;;;6.05;3.75;;;;;;;26.83;31.99;100141.93;3485110;79;21547;-86
2022/05/11 13:11:28;;;;;;;5.05;4.47;;;;;;;26.67;32.50;100137.98;3555973;79;20976;-83
2022/05/11 13:16:28;;;;;;;6.60;4.78;;;;;;;26.41;32.81;100136.80;3537786;79;21549;-82
2022/05/11 13:21:31;;;;;;;4.75;4.35;;;;;;;26.65;32.72;100139.00;3548577;79;21292;-82
2022/05/11 13:26:43;;;;;;;5.53;4.60;;;;;;;26.91;32.77;100135.64;3580320;78;21119;-80
2022/05/11 13:31:38;;;;;;;5.45;4.83;;;;;;;27.17;32.56;100122.54;3527817;79;22468;-84
2022/05/11 13:36:43;;;;;;;5.62;5.12;;;;;;;27.36;32.54;100124.48;3435303;81;20953;-82
2022/05/11 13:41:42;;;;;;;7.35;4.87;;;;;;;27.64;32.66;100113.38;3493313;79;21016;-84
2022/05/11 13:51:52;;;;;;;6.97;4.75;;;;;;;27.66;31.99;100098.11;3524388;79;21147;-81
2022/05/11 13:57:03;;;;;;;8.28;4.90;;;;;;;27.65;31.81;100085.73;3514328;79;20968;-83
2022/05/11 14:01:55;;;;;;;11.70;4.37;;;;;;;27.47;32.13;100090.89;3547436;78;20888;-80
2022/05/11 14:07:00;;;;;;;11.90;5.10;;;;;;;27.30;32.34;100090.64;3459758;81;21229;-81
2022/05/11 14:11:52;;;;;;;5.78;5.25;;;;;;;27.14;32.55;100088.03;3430622;81;20969;-81
2022/05/11 14:16:43;;;;;;;4.80;4.40;;;;;;;26.84;32.58;100083.63;3458976;79;21460;-78
2022/05/11 14:21:39;;;;;;;13.03;5.25;;;;;;;26.82;33.10;100082.86;3472980;79;20935;-79
2022/05/11 14:26:30;;;;;;;7.35;6.12;;;;;;;27.17;33.49;100079.84;3489546;79;20993;-80
2022/05/11 14:31:21;;;;;;;6.05;5.00;;;;;;;27.19;33.18;100064.59;3473111;79;20930;-80
2022/05/11 14:36:13;;;;;;;6.55;5.17;;;;;;;26.98;33.16;100070.30;3570298;79;21019;-80
2022/05/11 14:41:04;;;;;;;8.45;4.92;;;;;;;26.74;33.60;100067.80;3525738;79;21586;-81
2022/05/11 14:46:05;;;;;;;7.42;5.05;;;;;;;26.51;33.90;100068.69;3554786;79;20950;-80
2022/05/11 14:50:53;;;;;;;9.10;5.33;;;;;;;26.19;34.27;100064.78;3590985;78;20927;-83
2022/05/11 14:55:45;;;;;;;8.83;5.70;;;;;;;26.08;34.54;100065.02;3566617;79;20935;-82
2022/05/11 15:05:48;;;;;;;6.20;5.60;;;;;;;26.11;34.64;100052.38;3600625;78;21194;-82
2022/05/11 15:10:40;;;;;;;7.40;5.08;;;;;;;26.21;34.77;100052.71;3553204;79;20938;-82
2022/05/11 15:15:34;;;;;;;5.87;5.33;;;;;;;26.27;34.74;100054.16;3572657;79;21366;-80
2022/05/11 15:20:30;;;;;;;7.83;5.15;;;;;;;26.20;34.83;100053.20;3548426;78;20956;-80
2022/05/11 15:25:22;;;;;;;7.42;5.28;;;;;;;26.29;35.21;100049.58;3576675;78;26544;-84
2022/05/11 15:30:17;;;;;;;5.78;5.28;;;;;;;26.35;35.03;100045.24;3582425;79;21562;-78
2022/05/11 15:35:12;;;;;;;7.80;5.35;;;;;;;26.46;35.13;100046.78;3526766;79;20927;-82
2022/05/11 15:40:05;;;;;;;7.47;4.75;;;;;;;26.81;34.87;100033.13;3503394;81;20974;-83
2022/05/11 15:44:57;;;;;;;7.00;5.00;;;;;;;26.85;34.29;100025.34;3543685;80;21006;-82
2022/05/11 15:49:48;;;;;;;8.63;5.47;;;;;;;27.00;34.51;100021.70;3458164;80;20958;-83
2022/05/11 15:54:39;;;;;;;8.75;5.37;;;;;;;27.28;34.53;100017.34;3507560;80;21004;-83
2022/05/11 15:59:30;;;;;;;5.05;4.45;;;;;;;27.33;33.81;100016.58;3456104;80;21052;-84
2022/05/11 16:04:21;;;;;;;6.78;4.33;;;;;;;27.32;33.80;100014.84;3491599;80;20998;-83
2022/05/11 16:09:13;;;;;;;5.50;4.95;;;;;;;27.26;33.27;100020.55;3459786;80;21018;-84
2022/05/11 16:14:11;;;;;;;5.10;4.55;;;;;;;27.05;33.38;100008.58;3513962;80;21525;-84
2022/05/11 16:24:15;;;;;;;7.62;4.58;;;;;;;26.77;33.91;99999.62;3490831;80;21467;-84
2022/05/11 16:29:06;;;;;;;5.17;4.40;;;;;;;26.77;33.80;99994.28;3529211;80;20918;-84
2022/05/11 16:33:57;;;;;;;5.22;4.62;;;;;;;26.63;33.82;99993.34;3513653;78;21416;-84
2022/05/11 16:38:49;;;;;;;5.45;4.95;;;;;;;26.57;34.11;99994.16;3576671;78;20935;-84
2022/05/11 16:43:41;;;;;;;6.90;4.85;;;;;;;26.52;34.19;99994.42;3532836;79;21099;-84
2022/05/11 16:48:32;;;;;;;5.97;5.33;;;;;;;26.41;34.26;99987.56;3565962;78;21013;-84
2022/05/11 16:53:23;;;;;;;5.05;4.65;;;;;;;26.32;34.40;99986.80;3517278;79;20935;-84
2022/05/11 16:58:14;;;;;;;4.90;4.47;;;;;;;26.20;34.53;99991.92;3559598;79;20993;-84
2022/05/11 17:03:11;;;;;;;8.15;5.58;;;;;;;26.05;34.79;99991.48;3560186;78;21708;-84
2022/05/11 17:08:03;;;;;;;10.05;5.37;;;;;;;25.92;35.17;99987.81;3570264;78;21447;-85
2022/05/11 17:12:54;;;;;;;13.40;5.78;;;;;;;25.72;35.18;99984.95;3576113;78;22024;-84
2022/05/11 17:17:47;;;;;;;8.53;6.05;;;;;;;25.59;35.94;99988.80;3515616;78;21000;-85
2022/05/11 17:22:41;;;;;;;18.12;6.03;;;;;;;25.33;36.64;99981.83;3546511;78;21587;-85
2022/05/11 17:27:32;;;;;;;7.33;5.95;;;;;;;25.06;37.42;99982.38;3521408;78;21104;-84
2022/05/11 17:32:24;;;;;;;16.57;8.08;;;;;;;24.70;37.88;99986.09;3589410;78;21125;-84
2022/05/11 17:37:15;;;;;;;57.67;12.53;;;;;;;24.31;38.92;99984.55;3490394;80;21452;-84
2022/05/11 17:42:07;;;;;;;15.83;7.17;;;;;;;23.95;39.77;99986.83;3507923;79;21084;-84
2022/05/11 17:46:58;;;;;;;12.30;6.58;;;;;;;23.63;40.38;99984.85;3525246;80;21207;-84
2022/05/11 17:51:51;;;;;;;11.53;6.47;;;;;;;23.34;41.29;99991.09;3543104;79;21037;-84
2022/05/11 17:56:42;;;;;;;8.43;6.87;;;;;;;23.01;41.75;99984.63;3510783;80;21480;-84
2022/05/11 18:01:34;;;;;;;14.20;7.95;;;;;;;22.70;42.44;99986.50;3526810;79;21052;-84
2022/05/11 18:06:26;;;;;;;77.50;12.93;;;;;;;22.41;43.28;100001.90;3542638;79;21297;-84
2022/05/11 18:11:17;;;;;;;35.43;9.30;;;;;;;22.16;43.86;99999.41;3556643;79;21008;-84
2022/05/11 18:16:10;;;;;;;13.95;8.85;;;;;;;21.94;44.25;100002.08;3515078;80;20986;-84
2022/05/11 18:21:01;;;;;;;14.43;9.43;;;;;;;21.70;44.96;100004.81;3560277;79;21064;-84
2022/05/11 18:25:52;;;;;;;14.13;8.55;;;;;;;21.48;45.19;100003.94;3528376;80;21666;-84
2022/05/11 18:30:44;;;;;;;24.60;8.80;;;;;;;21.26;46.05;100007.85;3530525;79;20931;-84
2022/05/11 18:35:35;;;;;;;20.20;8.90;;;;;;;21.05;46.37;100008.20;3496360;79;21021;-84
2022/05/11 18:40:28;;;;;;;19.25;8.35;;;;;;;20.87;46.88;100013.28;3475347;80;20938;-84
2022/05/11 18:45:19;;;;;;;19.42;9.95;;;;;;;20.69;47.47;100012.61;3551040;78;21154;-84
2022/05/11 18:50:16;;;;;;;13.62;9.70;;;;;;;20.56;47.94;100011.69;3530209;80;21018;-84
2022/05/11 18:55:08;;;;;;;13.78;8.75;;;;;;;20.44;48.05;100020.50;3515171;80;20987;-84
2022/05/11 19:00:00;;;;;;;13.78;9.33;;;;;;;20.27;48.21;100014.50;3523477;80;22013;-84
2022/05/11 19:04:51;;;;;;;15.03;9.48;;;;;;;20.11;48.60;100013.69;3517798;80;20979;-84
2022/05/11 19:09:42;;;;;;;16.95;9.28;;;;;;;19.98;48.81;100011.92;3505625;80;21733;-84
2022/05/11 19:14:34;;;;;;;17.25;10.35;;;;;;;19.81;48.90;100012.46;3403585;80;20959;-85
2022/05/11 19:19:25;;;;;;;24.65;11.75;;;;;;;19.66;49.41;100009.45;3508458;80;20924;-84
2022/05/11 19:24:16;;;;;;;23.62;11.80;;;;;;;19.50;49.71;100016.97;3467286;80;21556;-84
2022/05/11 19:29:09;;;;;;;23.00;12.23;;;;;;;19.35;50.16;100016.97;3471193;80;20964;-84
2022/05/11 19:34:00;;;;;;;18.12;10.85;;;;;;;19.20;50.27;100006.44;3498469;80;21480;-84
2022/05/11 19:38:51;;;;;;;10.38;9.08;;;;;;;19.06;50.51;100005.53;3575678;78;20960;-84
2022/05/11 19:43:43;;;;;;;12.50;10.63;;;;;;;18.95;50.67;100004.52;3501785;79;21202;-84
2022/05/11 19:48:35;;;;;;;11.22;10.08;;;;;;;18.82;51.09;100000.53;3507799;80;20943;-84
2022/05/11 19:53:26;;;;;;;15.68;10.32;;;;;;;18.68;51.59;99999.09;3499133;80;20961;-83
2022/05/11 19:58:23;;;;;;;17.37;12.47;;;;;;;18.54;51.93;100002.56;3472392;80;21471;-84
2022/05/11 20:03:19;;;;;;;14.10;10.38;;;;;;;18.45;52.16;100004.13;3498671;80;21501;-83
2022/05/11 20:08:10;;;;;;;12.15;10.68;;;;;;;18.33;52.40;100001.36;3486220;80;20948;-83
2022/05/11 20:13:04;;;;;;;11.57;10.55;;;;;;;18.19;52.69;99993.86;3511381;79;21030;-83
2022/05/11 20:17:56;;;;;;;12.23;10.25;;;;;;;18.05;53.07;99990.72;3552444;80;20946;-84
2022/05/11 20:22:47;;;;;;;14.95;10.15;;;;;;;17.95;53.23;99993.16;3533468;79;22374;-84
2022/05/11 20:27:38;;;;;;;12.50;10.75;;;;;;;17.83;53.15;99982.02;3462703;80;20990;-84
2022/05/11 20:37:43;;;;;;;15.50;11.53;;;;;;;17.63;54.11;99982.47;3476907;80;20982;-83
2022/05/11 20:42:36;;;;;;;11.88;10.60;;;;;;;17.49;54.43;99986.77;3472668;81;20932;-83
2022/05/11 20:47:27;;;;;;;18.27;11.73;;;;;;;17.42;54.49;99984.29;3479113;78;21471;-82
2022/05/11 20:52:19;;;;;;;13.00;11.73;;;;;;;17.34;54.63;99985.33;3542857;79;21062;-82
2022/05/11 20:57:10;;;;;;;14.05;12.50;;;;;;;17.20;55.31;99983.92;3458949;80;21009;-82
2022/05/11 21:02:01;;;;;;;13.85;12.45;;;;;;;17.09;55.71;99978.44;3496929;80;20966;-82
2022/05/11 21:06:52;;;;;;;17.95;13.43;;;;;;;16.98;56.22;99973.88;3536053;79;21141;-82
2022/05/11 21:11:45;;;;;;;14.95;13.35;;;;;;;16.90;56.66;99983.23;3531890;79;21367;-82
2022/05/11 21:16:36;;;;;;;15.70;13.90;;;;;;;16.83;56.94;99972.84;3520902;80;20926;-82
2022/05/11 21:21:28;;;;;;;14.63;13.10;;;;;;;16.71;57.07;99974.83;3514053;80;22257;-82
2022/05/11 21:26:19;;;;;;;14.93;13.20;;;;;;;16.60;57.26;99976.81;3519027;79;20920;-82
2022/05/11 21:31:10;;;;;;;15.45;12.90;;;;;;;16.51;57.46;99969.13;3532920;80;20982;-82
2022/05/11 21:36:01;;;;;;;14.20;12.73;;;;;;;16.43;57.69;99968.39;3536887;79;21451;-81
2022/05/11 21:40:53;;;;;;;16.48;14.40;;;;;;;16.35;57.77;99971.16;3566878;78;21036;-82
2022/05/11 21:45:46;;;;;;;14.90;13.38;;;;;;;16.28;58.15;99962.99;3540998;78;20916;-82
2022/05/11 21:50:39;;;;;;;15.23;13.62;;;;;;;16.21;58.23;99966.17;3503643;79;20981;-82
2022/05/11 21:55:30;;;;;;;16.23;14.60;;;;;;;16.17;58.38;99957.95;3563466;79;20918;-82
2022/05/11 22:00:30;;;;;;;16.52;14.70;;;;;;;16.12;58.33;99950.61;3587662;79;21054;-82
2022/05/11 22:05:23;;;;;;;19.62;14.53;;;;;;;16.06;58.51;99953.31;3565339;78;20896;-83
2022/05/11 22:10:18;;;;;;;18.05;14.98;;;;;;;16.00;58.91;99943.81;3526028;78;21037;-82
2022/05/11 22:15:10;;;;;;;19.23;13.90;;;;;;;15.95;59.08;99943.91;3555787;78;20934;-83
2022/05/11 22:20:02;;;;;;;15.20;13.48;;;;;;;15.89;58.83;99942.69;3539491;79;21001;-83
2022/05/11 22:24:53;;;;;;;17.98;14.40;;;;;;;15.83;59.32;99938.88;3592291;78;21467;-83
2022/05/11 22:29:45;;;;;;;16.77;13.55;;;;;;;15.76;59.30;99933.31;3532300;79;20969;-83
2022/05/11 22:34:36;;;;;;;17.90;14.63;;;;;;;15.70;59.37;99925.05;3501578;79;20938;-83
2022/05/11 22:39:27;;;;;;;17.15;14.53;;;;;;;15.64;59.74;99922.09;3590675;78;20914;-82
2022/05/11 22:44:18;;;;;;;16.82;14.58;;;;;;;15.59;59.82;99919.98;3501795;79;20918;-82
2022/05/11 22:49:09;;;;;;;15.65;14.05;;;;;;;15.54;59.70;99906.12;3592636;78;21365;-82
2022/05/11 22:54:01;;;;;;;19.00;14.90;;;;;;;15.50;59.96;99907.05;3595100;78;20887;-82
2022/05/11 22:58:53;;;;;;;16.97;15.18;;;;;;;15.45;60.15;99903.63;3568285;79;20914;-82
2022/05/11 23:03:44;;;;;;;17.27;15.68;;;;;;;15.37;60.37;99891.97;3554295;79;20941;-83
2022/05/11 23:08:37;;;;;;;15.53;13.95;;;;;;;15.34;60.39;99889.84;3546992;78;21760;-82
2022/05/11 23:13:28;;;;;;;23.42;14.47;;;;;;;15.28;60.49;99889.95;3492217;79;21134;-82
2022/05/11 23:18:19;;;;;;;17.85;15.55;;;;;;;15.16;60.76;99886.62;3534324;78;21544;-82
2022/05/11 23:23:11;;;;;;;19.70;15.80;;;;;;;15.12;60.90;99886.70;3512834;78;20986;-83
2022/05/11 23:28:03;;;;;;;17.45;15.35;;;;;;;15.08;60.92;99867.56;3548348;78;20954;-82
2022/05/11 23:32:54;;;;;;;16.82;15.10;;;;;;;15.03;61.03;99865.45;3537109;79;20950;-82
2022/05/11 23:37:46;;;;;;;19.50;14.80;;;;;;;14.96;61.19;99862.50;3549802;78;21194;-82